createdAt,value
2018-07-11T00:00:02.774Z,11.76
2018-07-11T00:03:06.026Z,11.69
2018-07-11T00:06:09.102Z,11.68
2018-07-11T00:09:12.221Z,11.67
2018-07-11T00:12:15.307Z,11.65
2018-07-11T00:15:18.568Z,11.59
2018-07-11T00:18:21.852Z,11.50
2018-07-11T00:21:25.226Z,11.47
2018-07-11T00:24:28.356Z,11.39
2018-07-11T00:27:31.715Z,11.37
2018-07-11T00:30:34.846Z,11.36
2018-07-11T00:33:38.018Z,11.43
2018-07-11T00:36:41.056Z,11.54
2018-07-11T00:39:44.229Z,11.72
2018-07-11T00:42:47.512Z,11.98
2018-07-11T00:45:51.082Z,12.28
2018-07-11T00:48:54.363Z,12.49
2018-07-11T00:51:57.580Z,12.62
2018-07-11T00:55:00.613Z,12.57
2018-07-11T00:58:43.498Z,12.36
2018-07-11T01:01:47.081Z,12.26
2018-07-11T01:04:50.229Z,12.27
2018-07-11T01:07:53.455Z,12.25
2018-07-11T01:10:59.332Z,12.34
2018-07-11T01:14:02.540Z,12.29
2018-07-11T01:17:10.222Z,12.31
2018-07-11T01:20:13.429Z,12.31
2018-07-11T01:23:16.643Z,12.33
2018-07-11T01:26:24.892Z,12.27
2018-07-11T01:29:29.079Z,12.27
2018-07-11T01:32:32.289Z,12.18
2018-07-11T01:35:36.363Z,12.20
2018-07-11T01:38:39.550Z,12.07
2018-07-11T01:41:42.836Z,12.01
2018-07-11T01:44:47.208Z,11.90
2018-07-11T01:47:51.430Z,11.81
2018-07-11T01:50:54.678Z,11.68
2018-07-11T01:53:57.825Z,11.62
2018-07-11T01:57:02.937Z,11.59
2018-07-11T02:00:07.121Z,11.57
2018-07-11T02:03:10.286Z,11.63
2018-07-11T02:06:15.382Z,11.73
2018-07-11T02:09:18.683Z,11.79
2018-07-11T02:12:21.749Z,11.90
2018-07-11T02:15:25.881Z,12.00
2018-07-11T02:18:29.759Z,12.05
2018-07-11T02:21:34.861Z,12.10
2018-07-11T02:24:37.904Z,12.17
2018-07-11T02:27:42.047Z,12.21
2018-07-11T02:30:47.288Z,12.14
2018-07-11T02:33:50.341Z,12.09
2018-07-11T02:36:53.499Z,12.07
2018-07-11T02:39:56.818Z,12.14
2018-07-11T02:43:00.011Z,12.15
2018-07-11T02:46:03.065Z,12.10
2018-07-11T02:49:06.208Z,12.12
2018-07-11T02:52:09.248Z,12.16
2018-07-11T02:55:12.419Z,12.21
2018-07-11T02:58:15.601Z,12.20
2018-07-11T03:01:19.799Z,12.16
2018-07-11T03:04:24.263Z,12.21
2018-07-11T03:13:28.284Z,12.31
2018-07-11T03:16:31.694Z,12.27
2018-07-11T03:19:34.987Z,12.38
2018-07-11T03:22:39.399Z,12.31
2018-07-11T03:25:42.699Z,12.20
2018-07-11T03:28:45.866Z,12.03
2018-07-11T03:31:49.192Z,11.82
2018-07-11T03:34:53.532Z,11.69
2018-07-11T03:37:56.699Z,11.62
2018-07-11T03:41:00.292Z,11.57
2018-07-11T03:44:03.743Z,11.54
2018-07-11T03:47:07.119Z,11.57
2018-07-11T03:50:10.426Z,11.67
2018-07-11T03:53:13.803Z,11.81
2018-07-11T03:56:16.867Z,11.99
2018-07-11T03:59:20.177Z,11.99
2018-07-11T04:02:23.444Z,11.90
2018-07-11T04:05:26.835Z,11.83
2018-07-11T04:08:30.179Z,11.99
2018-07-11T04:11:33.474Z,12.14
2018-07-11T04:14:37.623Z,12.32
2018-07-11T04:17:41.744Z,12.65
2018-07-11T04:20:44.921Z,13.10
2018-07-11T04:23:48.513Z,13.05
2018-07-11T04:26:52.109Z,12.87
2018-07-11T04:29:55.232Z,12.90
2018-07-11T04:32:58.472Z,13.03
2018-07-11T04:36:01.650Z,12.85
2018-07-11T04:39:04.922Z,12.71
2018-07-11T04:42:08.443Z,12.75
2018-07-11T04:45:11.868Z,13.03
2018-07-11T04:48:15.328Z,13.49
2018-07-11T04:51:18.773Z,13.81
2018-07-11T04:54:22.158Z,14.31
2018-07-11T04:57:26.601Z,14.61
2018-07-11T05:00:31.937Z,14.64
2018-07-11T05:03:35.102Z,14.99
2018-07-11T05:06:38.428Z,16.62
2018-07-11T05:09:41.842Z,15.64
2018-07-11T05:12:45.124Z,15.24
2018-07-11T05:15:48.338Z,14.80
2018-07-11T05:18:51.534Z,14.16
2018-07-11T05:21:54.849Z,14.17
2018-07-11T05:24:59.350Z,15.51
2018-07-11T05:28:02.672Z,19.17
2018-07-11T05:31:06.826Z,18.82
2018-07-11T05:34:09.918Z,18.08
2018-07-11T05:37:14.068Z,20.90
2018-07-11T05:40:17.336Z,18.75
2018-07-11T05:43:22.416Z,19.40
2018-07-11T05:46:26.562Z,19.33
2018-07-11T05:49:29.987Z,21.03
2018-07-11T05:52:33.281Z,20.87
2018-07-11T05:55:36.680Z,19.63
2018-07-11T05:58:41.129Z,17.58
2018-07-11T06:01:44.473Z,18.54
2018-07-11T06:04:47.578Z,21.01
2018-07-11T06:07:52.708Z,23.09
2018-07-11T06:10:56.766Z,22.00
2018-07-11T06:14:01.978Z,20.86
2018-07-11T06:17:05.227Z,19.14
2018-07-11T06:20:08.730Z,19.55
2018-07-11T06:23:12.039Z,17.34
2018-07-11T06:26:17.391Z,16.17
2018-07-11T06:29:20.749Z,15.83
2018-07-11T06:32:24.078Z,15.98
2018-07-11T06:35:27.437Z,16.02
2018-07-11T06:38:30.396Z,16.62
2018-07-11T06:41:34.588Z,15.76
2018-07-11T06:44:37.849Z,15.64
2018-07-11T06:47:40.914Z,15.29
2018-07-11T06:50:46.328Z,16.41
2018-07-11T06:53:50.765Z,15.94
2018-07-11T06:56:54.002Z,14.97
2018-07-11T06:59:57.274Z,14.76
2018-07-11T07:03:01.592Z,15.00
2018-07-11T07:06:09.637Z,14.97
2018-07-11T07:09:13.773Z,15.28
2018-07-11T07:12:16.903Z,15.32
2018-07-11T07:15:23.555Z,15.51
2018-07-11T07:18:26.755Z,15.94
2018-07-11T07:21:34.469Z,16.21
2018-07-11T07:24:37.523Z,18.32
2018-07-11T07:27:40.733Z,17.91
2018-07-11T07:30:45.204Z,16.96
2018-07-11T07:33:48.691Z,16.60
2018-07-11T07:36:52.040Z,15.83
2018-07-11T07:40:05.926Z,15.55
2018-07-11T07:43:09.002Z,15.27
2018-07-11T07:46:13.274Z,15.36
2018-07-11T07:49:16.577Z,15.25
2018-07-11T07:52:20.774Z,15.60
2018-07-11T07:55:27.736Z,16.14
2018-07-11T07:58:31.005Z,17.16
2018-07-11T08:01:36.484Z,16.94
2018-07-11T08:04:40.978Z,17.12
2018-07-11T08:07:47.743Z,17.01
2018-07-11T08:10:51.114Z,17.52
2018-07-11T08:13:54.539Z,17.35
2018-07-11T08:16:58.994Z,17.02
2018-07-11T08:20:02.429Z,17.70
2018-07-11T08:23:18.181Z,18.20
2018-07-11T08:26:33.822Z,18.21
2018-07-11T08:30:20.435Z,18.41
2018-07-11T08:33:39.711Z,17.95
2018-07-11T08:41:02.335Z,18.91
2018-07-11T08:49:44.285Z,20.23
2018-07-11T08:53:02.393Z,21.79
2018-07-11T08:58:24.910Z,21.16
2018-07-11T09:01:39.165Z,22.97
2018-07-11T09:05:11.010Z,23.29
2018-07-11T09:08:32.855Z,21.28
2018-07-11T09:11:44.733Z,19.93
2018-07-11T09:20:34.417Z,18.62
2018-07-11T09:23:49.559Z,16.84
2018-07-11T09:26:52.706Z,16.58
2018-07-11T09:30:03.433Z,16.56
2018-07-11T09:33:06.470Z,16.59
2018-07-11T09:36:09.549Z,16.55
2018-07-11T09:39:12.632Z,16.44
2018-07-11T09:42:15.852Z,16.44
2018-07-11T09:45:19.159Z,16.63
2018-07-11T09:48:22.333Z,16.91
2018-07-11T09:51:25.385Z,17.16
2018-07-11T09:54:28.501Z,17.58
2018-07-11T09:57:33.252Z,17.91
2018-07-11T10:00:44.153Z,18.17
2018-07-11T10:03:47.602Z,18.00
2018-07-11T10:06:50.790Z,17.88
2018-07-11T10:09:54.290Z,17.68
2018-07-11T10:12:57.683Z,17.79
2018-07-11T10:16:00.725Z,17.54
2018-07-11T10:19:04.716Z,17.66
2018-07-11T10:22:07.878Z,17.46
2018-07-11T10:25:10.889Z,17.88
2018-07-11T10:28:17.080Z,18.49
2018-07-11T10:31:20.345Z,18.74
2018-07-11T10:34:23.687Z,19.19
2018-07-11T10:37:27.135Z,19.16
2018-07-11T10:40:30.322Z,18.70
2018-07-11T10:43:33.617Z,18.28
2018-07-11T10:46:36.801Z,18.08
2018-07-11T10:49:40.372Z,17.91
2018-07-11T10:52:43.500Z,17.87
2018-07-11T10:55:46.762Z,17.91
2018-07-11T10:58:49.821Z,17.66
2018-07-11T11:01:52.890Z,17.38
2018-07-11T11:04:56.167Z,17.45
2018-07-11T11:08:00.421Z,17.59
2018-07-11T11:11:03.599Z,17.46
2018-07-11T11:14:07.950Z,17.26
2018-07-11T11:17:11.427Z,17.24
2018-07-11T11:20:14.661Z,17.50
2018-07-11T11:23:18.212Z,17.93
2018-07-11T11:26:21.696Z,18.23
2018-07-11T11:29:24.967Z,18.62
2018-07-11T11:32:28.230Z,19.30
2018-07-11T11:35:31.505Z,20.19
2018-07-11T11:38:34.931Z,21.23
2018-07-11T11:41:38.417Z,22.09
2018-07-11T11:44:41.817Z,22.99
2018-07-11T11:47:44.905Z,23.34
2018-07-11T11:50:48.097Z,22.78
2018-07-11T11:53:51.351Z,22.46
2018-07-11T11:56:54.706Z,23.27
2018-07-11T11:59:58.081Z,23.30
2018-07-11T12:03:01.330Z,24.38
2018-07-11T12:06:04.787Z,25.68
2018-07-11T12:09:08.601Z,25.65
2018-07-11T12:12:11.741Z,24.68
2018-07-11T12:15:15.084Z,23.85
2018-07-11T12:18:18.350Z,23.99
2018-07-11T12:21:21.589Z,23.71
2018-07-11T12:24:24.867Z,22.59
2018-07-11T12:27:28.129Z,21.28
2018-07-11T12:30:31.672Z,20.42
2018-07-11T12:33:34.972Z,19.75
2018-07-11T12:36:38.365Z,18.86
2018-07-11T12:39:41.596Z,18.19
2018-07-11T12:42:45.221Z,18.22
2018-07-11T12:45:48.489Z,18.16
2018-07-11T12:48:57.463Z,18.27
2018-07-11T12:52:00.740Z,18.01
2018-07-11T12:55:03.860Z,17.82
2018-07-11T12:58:07.200Z,17.70
2018-07-11T13:01:10.460Z,17.81
2018-07-11T13:04:13.567Z,17.97
2018-07-11T13:07:16.696Z,18.16
2018-07-11T13:10:20.019Z,18.53
2018-07-11T13:13:23.107Z,19.09
2018-07-11T13:16:26.336Z,19.21
2018-07-11T13:19:29.527Z,19.29
2018-07-11T13:22:32.835Z,19.76
2018-07-11T13:25:36.247Z,19.97
2018-07-11T13:28:39.425Z,19.72
2018-07-11T13:31:42.961Z,19.69
2018-07-11T13:34:46.394Z,19.90
2018-07-11T13:37:49.608Z,20.18
2018-07-11T13:40:52.794Z,20.55
2018-07-11T13:43:56.216Z,20.52
2018-07-11T13:46:59.508Z,20.61
2018-07-11T13:50:02.827Z,20.71
2018-07-11T13:53:06.138Z,20.73
2018-07-11T13:56:09.394Z,21.05
2018-07-11T13:59:12.537Z,21.22
2018-07-11T14:02:15.901Z,21.04
2018-07-11T14:05:19.593Z,21.32
2018-07-11T14:08:22.952Z,21.12
2018-07-11T14:11:26.174Z,20.86
2018-07-11T14:14:29.466Z,21.08
2018-07-11T14:17:32.637Z,21.28
2018-07-11T14:20:36.035Z,21.30
2018-07-11T14:23:42.105Z,21.28
2018-07-11T14:26:45.563Z,21.14
2018-07-11T14:29:49.092Z,20.81
2018-07-11T14:32:55.635Z,20.54
2018-07-11T14:35:59.513Z,20.47
2018-07-11T14:39:04.221Z,20.47
2018-07-11T14:42:07.579Z,20.38
2018-07-11T14:45:10.823Z,20.22
2018-07-11T14:48:15.456Z,20.39
2018-07-11T14:51:18.747Z,20.21
2018-07-11T14:54:21.933Z,20.23
2018-07-11T14:57:25.347Z,19.95
2018-07-11T15:00:29.676Z,20.07
2018-07-11T15:03:32.959Z,19.81
2018-07-11T15:06:36.073Z,19.70
2018-07-11T15:09:39.142Z,19.60
2018-07-11T15:12:42.315Z,19.34
2018-07-11T15:15:45.689Z,18.93
2018-07-11T15:19:51.756Z,19.05
2018-07-11T15:22:55.188Z,19.08
2018-07-11T15:25:58.531Z,19.06
2018-07-11T15:29:01.705Z,19.24
2018-07-11T15:32:05.102Z,19.11
2018-07-11T15:35:09.940Z,19.31
2018-07-11T15:38:14.479Z,19.39
2018-07-11T15:41:17.713Z,19.37
2018-07-11T15:44:20.934Z,19.22
2018-07-11T15:47:24.641Z,19.18
2018-07-11T15:50:27.925Z,18.98
2018-07-11T15:53:31.191Z,18.86
2018-07-11T15:56:35.313Z,18.72
2018-07-11T15:59:47.521Z,18.26
2018-07-11T16:02:51.604Z,17.89
2018-07-11T16:05:55.215Z,17.71
2018-07-11T16:09:04.169Z,17.46
2018-07-11T16:12:07.706Z,17.37
2018-07-11T16:15:11.296Z,17.59
2018-07-11T16:18:15.675Z,17.82
2018-07-11T16:21:18.942Z,17.62
2018-07-11T16:24:22.218Z,17.41
2018-07-11T16:27:25.463Z,17.39
2018-07-11T16:30:28.903Z,17.41
2018-07-11T16:33:32.155Z,17.40
2018-07-11T16:36:37.495Z,17.36
2018-07-11T16:39:41.935Z,17.37
2018-07-11T16:42:45.330Z,17.28
2018-07-11T16:45:49.633Z,17.11
2018-07-11T16:48:53.321Z,16.97
2018-07-11T16:51:56.878Z,16.87
2018-07-11T16:55:03.444Z,16.78
2018-07-11T16:58:08.650Z,16.78
2018-07-11T17:01:12.120Z,16.85
2018-07-11T17:04:15.353Z,16.98
2018-07-11T17:07:19.335Z,16.99
2018-07-11T17:10:23.723Z,16.94
2018-07-11T17:13:26.857Z,16.77
2018-07-11T17:17:05.379Z,16.81
2018-07-11T17:20:10.741Z,16.85
2018-07-11T17:23:13.868Z,16.80
2018-07-11T17:26:18.594Z,16.50
2018-07-11T17:29:25.115Z,16.35
2018-07-11T17:32:30.194Z,16.32
2018-07-11T17:35:33.708Z,16.31
2018-07-11T17:38:37.053Z,16.32
2018-07-11T17:41:40.530Z,16.29
2018-07-11T17:44:48.081Z,16.27
2018-07-11T17:48:00.649Z,16.28
2018-07-11T17:51:08.886Z,16.24
2018-07-11T17:54:12.243Z,16.23
2018-07-11T17:57:23.908Z,16.24
2018-07-11T18:00:38.281Z,16.23
2018-07-11T18:04:06.417Z,16.18
2018-07-11T18:07:13.740Z,16.10
2018-07-11T18:10:30.162Z,15.95
2018-07-11T18:13:37.819Z,15.82
2018-07-11T18:18:55.109Z,15.89
2018-07-11T18:24:19.728Z,15.92
2018-07-11T18:27:37.306Z,15.88
2018-07-11T18:32:55.179Z,15.84
2018-07-11T18:36:08.661Z,15.93
2018-07-11T18:39:20.906Z,15.92
2018-07-11T18:42:46.621Z,16.00
2018-07-11T18:46:00.936Z,15.92
2018-07-11T18:49:24.049Z,15.85
2018-07-11T18:52:31.954Z,15.77
2018-07-11T18:57:43.174Z,15.73
2018-07-11T19:00:58.488Z,15.72
2018-07-11T19:04:14.106Z,15.70
2018-07-11T19:09:30.561Z,15.70
2018-07-11T19:12:45.540Z,15.68
2018-07-11T19:15:53.700Z,15.63
2018-07-11T19:19:05.913Z,15.62
2018-07-11T19:22:17.319Z,15.61
2018-07-11T19:25:30.046Z,15.64
2018-07-11T19:28:44.003Z,15.61
2018-07-11T19:31:57.813Z,15.60
2018-07-11T19:35:08.021Z,15.58
2018-07-11T19:38:34.647Z,15.58
2018-07-11T19:41:47.195Z,15.58
2018-07-11T19:49:06.433Z,15.58
2018-07-11T19:52:21.429Z,15.53
2018-07-11T19:56:33.436Z,15.61
2018-07-11T19:59:36.686Z,15.65
2018-07-11T20:02:39.938Z,15.67
2018-07-11T20:05:53.343Z,15.72
2018-07-11T20:08:48.023Z,15.76
2018-07-11T20:11:51.222Z,15.76
2018-07-11T20:14:54.450Z,15.81
2018-07-11T20:17:57.519Z,15.83
2018-07-11T20:21:00.637Z,15.82
2018-07-11T20:24:03.719Z,15.79
2018-07-11T20:27:06.827Z,15.78
2018-07-11T20:30:40.640Z,15.80
2018-07-11T20:33:43.959Z,15.75
2018-07-11T20:36:47.147Z,15.70
2018-07-11T20:39:50.425Z,15.66
2018-07-11T20:42:53.665Z,15.63
2018-07-11T20:45:56.793Z,15.62
2018-07-11T20:49:03.853Z,15.61
2018-07-11T20:52:07.134Z,15.61
2018-07-11T20:55:10.278Z,15.62
2018-07-11T20:58:24.501Z,15.64
2018-07-11T21:01:38.811Z,15.63
2018-07-11T21:04:53.381Z,15.61
2018-07-11T21:08:39.695Z,15.57
2018-07-11T21:13:58.308Z,15.57
2018-07-11T21:19:09.221Z,15.55
2018-07-11T21:22:12.380Z,15.58
2018-07-11T21:25:15.406Z,15.61
2018-07-11T21:28:18.598Z,15.59
2018-07-11T21:31:21.811Z,15.60
2018-07-11T21:34:24.937Z,15.61
2018-07-11T21:37:28.150Z,15.64
2018-07-11T21:40:31.310Z,15.64
2018-07-11T21:43:34.395Z,15.64
2018-07-11T21:46:37.514Z,15.55
2018-07-11T21:49:40.656Z,15.50
2018-07-11T21:52:43.665Z,15.50
2018-07-11T21:55:46.719Z,15.49
2018-07-11T21:58:49.950Z,15.46
2018-07-11T22:01:53.120Z,15.48
2018-07-11T22:04:56.315Z,15.52
2018-07-11T22:07:59.352Z,15.53
2018-07-11T22:11:02.441Z,15.56
2018-07-11T22:14:05.674Z,15.55
2018-07-11T22:17:20.305Z,15.53
2018-07-11T22:20:22.292Z,15.47
2018-07-11T22:23:24.467Z,15.41
2018-07-11T22:26:26.453Z,15.37
2018-07-11T22:29:28.420Z,15.34
2018-07-11T22:32:30.475Z,15.31
2018-07-11T22:35:32.566Z,15.31
2018-07-11T22:38:34.563Z,15.30
2018-07-11T22:41:36.561Z,15.32
2018-07-11T22:44:38.642Z,15.34
2018-07-11T22:47:40.667Z,15.41
2018-07-11T22:50:42.703Z,15.49
2018-07-11T22:53:44.720Z,15.59
2018-07-11T22:56:46.356Z,15.63
2018-07-11T22:59:49.006Z,15.67
2018-07-11T23:02:50.992Z,15.73
2018-07-11T23:05:53.005Z,15.78
2018-07-11T23:08:55.047Z,15.84
2018-07-11T23:11:57.115Z,15.86
2018-07-11T23:14:58.770Z,15.85
2018-07-11T23:18:00.399Z,15.84
2018-07-11T23:21:02.114Z,15.76
2018-07-11T23:24:04.181Z,15.71
2018-07-11T23:27:06.258Z,15.64
2018-07-11T23:30:08.316Z,15.55
2018-07-11T23:33:10.411Z,15.52
2018-07-11T23:36:12.012Z,15.52
2018-07-11T23:39:14.195Z,15.50
2018-07-11T23:42:15.860Z,15.52
2018-07-11T23:45:18.258Z,15.55
2018-07-11T23:48:20.289Z,15.54
2018-07-11T23:51:22.407Z,15.51
2018-07-11T23:54:24.430Z,15.52
2018-07-11T23:57:26.581Z,15.52
